createdAt,value
2023-04-02T04:00:43.242Z,99.99
2023-04-02T04:01:44.695Z,99.99
2023-04-02T04:02:44.296Z,99.99
2023-04-02T04:03:44.023Z,99.99
2023-04-02T04:04:44.701Z,99.99
2023-04-02T04:05:43.994Z,99.99
2023-04-02T04:06:44.494Z,99.99
2023-04-02T04:07:43.966Z,99.99
2023-04-02T04:08:43.952Z,99.99
2023-04-02T04:09:43.941Z,99.99
2023-04-02T04:10:44.051Z,99.99
2023-04-02T04:11:43.971Z,99.99
2023-04-02T04:12:43.924Z,99.99
2023-04-02T04:13:43.959Z,99.99
2023-04-02T04:14:45.252Z,99.99
2023-04-02T04:15:43.910Z,99.99
2023-04-02T04:16:43.983Z,99.99
2023-04-02T04:17:43.930Z,99.99
2023-04-02T04:18:43.885Z,99.99
2023-04-02T04:19:43.829Z,99.99
2023-04-02T04:20:43.839Z,99.99
2023-04-02T04:21:43.935Z,99.99
2023-04-02T04:22:43.839Z,99.99
2023-04-02T04:23:43.792Z,99.99
2023-04-02T04:24:43.793Z,99.99
2023-04-02T04:25:43.835Z,99.99
2023-04-02T04:26:43.877Z,99.99
2023-04-02T04:27:44.810Z,99.99
2023-04-02T04:28:43.780Z,99.99
2023-04-02T04:29:43.728Z,99.99
2023-04-02T04:30:43.736Z,99.99
2023-04-02T04:31:43.815Z,99.99
2023-04-02T04:32:43.719Z,99.99
2023-04-02T04:33:43.715Z,99.99
2023-04-02T04:34:43.682Z,99.99
2023-04-02T04:35:43.742Z,99.99
2023-04-02T04:36:43.704Z,99.99
2023-04-02T04:37:43.645Z,99.99
2023-04-02T04:38:44.919Z,99.99
2023-04-02T04:39:43.712Z,99.99
2023-04-02T04:40:43.626Z,99.99
2023-04-02T04:41:43.725Z,99.99
2023-04-02T04:42:43.625Z,99.99
2023-04-02T04:43:43.589Z,99.99
2023-04-02T04:44:43.628Z,99.99
2023-04-02T04:45:43.626Z,99.99
2023-04-02T04:46:43.645Z,99.99
2023-04-02T04:47:43.686Z,99.99
2023-04-02T04:48:43.521Z,99.99
2023-04-02T04:49:43.569Z,99.99
2023-04-02T04:50:43.489Z,99.99
2023-04-02T04:51:43.552Z,99.99
2023-04-02T04:52:43.660Z,99.99
2023-04-02T04:53:43.560Z,99.99
2023-04-02T04:54:43.535Z,99.99
2023-04-02T04:55:43.488Z,99.99
2023-04-02T04:56:43.428Z,99.99
2023-04-02T04:57:43.445Z,99.99
2023-04-02T04:58:43.408Z,99.99
2023-04-02T04:59:43.393Z,99.99
2023-04-02T05:00:43.387Z,99.99
2023-04-02T05:01:43.393Z,99.99
2023-04-02T05:02:43.408Z,99.99
2023-04-02T05:03:43.353Z,99.99
2023-04-02T05:04:43.390Z,99.99
2023-04-02T05:05:43.325Z,99.99
2023-04-02T05:06:43.351Z,99.99
2023-04-02T05:07:43.326Z,99.99
2023-04-02T05:08:43.318Z,99.99
2023-04-02T05:09:43.286Z,99.99
2023-04-02T05:10:43.283Z,99.99
2023-04-02T05:11:43.331Z,99.99
2023-04-02T05:12:43.279Z,99.99
2023-04-02T05:13:43.239Z,99.99
2023-04-02T05:14:43.232Z,99.99
2023-04-02T05:15:43.266Z,99.99
2023-04-02T05:16:43.231Z,99.99
2023-04-02T05:17:43.236Z,99.99
2023-04-02T05:18:43.200Z,99.99
2023-04-02T05:19:43.175Z,99.99
2023-04-02T05:20:43.170Z,99.99
2023-04-02T05:21:43.168Z,99.99
2023-04-02T05:22:43.186Z,99.99
2023-04-02T05:23:43.140Z,99.99
2023-04-02T05:24:43.131Z,99.99
2023-04-02T05:25:43.120Z,99.99
2023-04-02T05:26:43.120Z,99.99
2023-04-02T05:27:43.112Z,99.99
2023-04-02T05:28:43.102Z,99.99
2023-04-02T05:29:43.078Z,99.99
2023-04-02T05:30:43.071Z,99.99
2023-04-02T05:31:43.218Z,99.99
2023-04-02T05:32:43.124Z,99.99
2023-04-02T05:33:43.046Z,99.99
2023-04-02T05:34:43.042Z,99.99
2023-04-02T05:35:43.095Z,99.99
2023-04-02T05:36:43.039Z,99.99
2023-04-02T05:37:43.005Z,99.99
2023-04-02T05:38:42.983Z,99.99
2023-04-02T05:39:42.973Z,99.99
2023-04-02T05:40:42.954Z,99.99
2023-04-02T05:41:42.953Z,99.99
2023-04-02T05:42:42.997Z,99.99
2023-04-02T05:43:42.921Z,99.99
2023-04-02T05:44:42.914Z,99.99
2023-04-02T05:45:42.903Z,99.99
2023-04-02T05:46:42.955Z,99.99
2023-04-02T05:47:42.939Z,99.99
2023-04-02T05:48:42.871Z,99.99
2023-04-02T05:49:42.858Z,99.99
2023-04-02T05:50:42.855Z,99.99
2023-04-02T05:51:42.883Z,99.99
2023-04-02T05:52:42.829Z,99.99
2023-04-02T05:53:42.846Z,99.99
2023-04-02T05:54:42.815Z,99.99
2023-04-02T05:55:42.800Z,99.99
2023-04-02T05:56:42.801Z,99.99
2023-04-02T05:57:48.325Z,99.99
2023-04-02T05:58:45.486Z,99.99
2023-04-02T05:59:42.761Z,99.99
2023-04-02T06:00:42.767Z,99.99
2023-04-02T06:01:42.768Z,99.99
2023-04-02T06:02:42.735Z,99.99
2023-04-02T06:03:42.823Z,99.99
2023-04-02T06:04:42.716Z,99.99
2023-04-02T06:05:42.703Z,99.99
2023-04-02T06:06:42.711Z,99.99
2023-04-02T06:07:42.680Z,99.99
2023-04-02T06:08:42.667Z,99.99
2023-04-02T06:09:42.659Z,99.99
2023-04-02T06:10:42.645Z,99.99
2023-04-02T06:11:42.660Z,99.99
2023-04-02T06:12:42.644Z,99.99
2023-04-02T06:13:42.630Z,99.99
2023-04-02T06:14:42.614Z,99.99
2023-04-02T06:15:42.599Z,99.99
2023-04-02T06:16:42.636Z,99.99
2023-04-02T06:17:42.596Z,99.99
2023-04-02T06:18:42.585Z,99.99
2023-04-02T06:19:42.552Z,99.99
2023-04-02T06:20:42.550Z,99.99
2023-04-02T06:21:42.536Z,99.99
2023-04-02T06:22:42.528Z,99.99
2023-04-02T06:23:42.559Z,99.99
2023-04-02T06:24:42.505Z,99.99
2023-04-02T06:25:42.487Z,99.99
2023-04-02T06:26:42.487Z,99.99
2023-04-02T06:27:42.464Z,99.99
2023-04-02T06:28:42.480Z,99.99
2023-04-02T06:29:42.461Z,99.99
2023-04-02T06:30:42.485Z,99.99
2023-04-02T06:31:42.437Z,99.99
2023-04-02T06:32:42.495Z,99.99
2023-04-02T06:33:42.462Z,99.99
2023-04-02T06:34:42.471Z,99.99
2023-04-02T06:35:42.431Z,99.99
2023-04-02T06:36:42.465Z,99.99
2023-04-02T06:37:42.378Z,99.99
2023-04-02T06:38:42.394Z,99.99
2023-04-02T06:39:42.349Z,99.99
2023-04-02T06:40:42.364Z,99.99
2023-04-02T06:41:42.332Z,99.99
2023-04-02T06:42:42.323Z,99.99
2023-04-02T06:43:42.354Z,99.99
2023-04-02T06:44:42.317Z,99.99
2023-04-02T06:45:42.352Z,99.99
2023-04-02T06:46:42.292Z,99.99
2023-04-02T06:47:42.271Z,99.99
2023-04-02T06:48:42.270Z,99.99
2023-04-02T06:49:42.251Z,99.99
2023-04-02T06:50:42.236Z,99.99
2023-04-02T06:51:42.235Z,99.99
2023-04-02T06:52:42.226Z,99.99
2023-04-02T06:53:42.228Z,99.86
2023-04-02T06:54:42.318Z,99.99
2023-04-02T06:55:42.184Z,99.99
2023-04-02T06:56:42.189Z,99.99
2023-04-02T06:57:43.061Z,99.99
2023-04-02T06:58:42.162Z,99.99
2023-04-02T06:59:42.155Z,99.65
2023-04-02T07:00:42.123Z,99.65
2023-04-02T07:01:42.225Z,98.61
2023-04-02T07:02:42.120Z,99.13
2023-04-02T07:03:42.110Z,99.86
2023-04-02T07:04:42.234Z,98.03
2023-04-02T07:05:43.053Z,98.41
2023-04-02T07:06:42.065Z,98.41
2023-04-02T07:07:42.044Z,98.30
2023-04-02T07:08:42.062Z,99.34
2023-04-02T07:09:42.013Z,99.86
2023-04-02T07:10:42.006Z,99.99
2023-04-02T07:11:42.005Z,98.93
2023-04-02T07:12:41.987Z,98.78
2023-04-02T07:13:41.999Z,98.57
2023-04-02T07:14:41.961Z,99.99
2023-04-02T07:15:41.957Z,99.61
2023-04-02T07:16:41.952Z,99.19
2023-04-02T07:17:42.000Z,97.64
2023-04-02T07:18:41.916Z,97.64
2023-04-02T07:19:41.920Z,97.43
2023-04-02T07:20:41.892Z,98.16
2023-04-02T07:21:41.897Z,97.90
2023-04-02T07:22:41.871Z,97.80
2023-04-02T07:23:41.929Z,97.17
2023-04-02T07:24:41.846Z,97.17
2023-04-02T07:25:41.842Z,97.90
2023-04-02T07:26:41.834Z,98.38
2023-04-02T07:27:41.817Z,97.03
2023-04-02T07:28:41.836Z,96.41
2023-04-02T07:29:41.795Z,95.99
2023-04-02T07:30:42.165Z,96.30
2023-04-02T07:31:41.998Z,94.48
2023-04-02T07:32:41.830Z,94.68
2023-04-02T07:33:42.209Z,94.79
2023-04-02T07:34:41.805Z,96.03
2023-04-02T07:35:41.767Z,95.72
2023-04-02T07:36:41.799Z,95.83
2023-04-02T07:37:41.766Z,95.87
2023-04-02T07:38:41.732Z,96.29
2023-04-02T07:39:41.995Z,97.17
2023-04-02T07:40:41.714Z,96.86
2023-04-02T07:41:41.710Z,95.31
2023-04-02T07:42:41.733Z,95.98
2023-04-02T07:43:41.715Z,95.87
2023-04-02T07:44:41.721Z,96.97
2023-04-02T07:45:41.643Z,96.34
2023-04-02T07:46:41.875Z,96.03
2023-04-02T07:47:41.675Z,94.63
2023-04-02T07:48:41.616Z,95.31
2023-04-02T07:49:42.202Z,96.24
2023-04-02T07:50:41.557Z,95.31
2023-04-02T07:51:41.561Z,95.51
2023-04-02T07:52:41.569Z,95.72
2023-04-02T07:53:41.602Z,95.00
2023-04-02T07:54:42.239Z,95.20
2023-04-02T07:55:41.708Z,95.41
2023-04-02T07:56:41.550Z,94.68
2023-04-02T07:57:42.038Z,95.00
2023-04-02T07:58:41.588Z,95.10
2023-04-02T07:59:41.676Z,95.68
2023-04-02T08:00:41.574Z,94.85
2023-04-02T08:01:41.979Z,94.74
2023-04-02T08:02:41.583Z,93.96
2023-04-02T08:03:41.673Z,94.54
2023-04-02T08:04:41.432Z,93.71
2023-04-02T08:05:41.545Z,93.40
2023-04-02T08:06:41.432Z,93.33
2023-04-02T08:07:41.417Z,92.98
2023-04-02T08:08:41.515Z,93.19
2023-04-02T08:09:41.477Z,94.23
2023-04-02T08:10:41.361Z,94.85
2023-04-02T08:11:41.416Z,94.60
2023-04-02T08:12:41.404Z,93.56
2023-04-02T08:13:41.304Z,93.87
2023-04-02T08:14:41.304Z,93.04
2023-04-02T08:15:41.281Z,93.08
2023-04-02T08:16:41.320Z,92.68
2023-04-02T08:17:41.483Z,92.32
2023-04-02T08:18:42.238Z,92.43
2023-04-02T08:19:54.172Z,92.32
2023-04-02T08:20:41.616Z,91.18
2023-04-02T08:21:41.489Z,90.66
2023-04-02T08:22:41.461Z,91.39
2023-04-02T08:23:42.099Z,92.53
2023-04-02T08:24:41.717Z,92.18
2023-04-02T08:25:44.454Z,91.45
2023-04-02T08:26:43.887Z,91.86
2023-04-02T08:27:41.535Z,92.24
2023-04-02T08:28:41.686Z,90.31
2023-04-02T08:29:41.288Z,90.83
2023-04-02T08:30:43.336Z,91.55
2023-04-02T08:31:42.125Z,91.45
2023-04-02T08:32:41.841Z,91.97
2023-04-02T08:33:41.590Z,90.83
2023-04-02T08:34:41.486Z,92.07
2023-04-02T08:35:41.281Z,92.07
2023-04-02T08:36:42.999Z,90.41
2023-04-02T08:37:42.103Z,91.30
2023-04-02T08:38:44.019Z,90.78
2023-04-02T08:39:41.486Z,91.30
2023-04-02T08:40:42.610Z,91.09
2023-04-02T08:41:40.616Z,90.89
2023-04-02T08:42:44.358Z,90.68
2023-04-02T08:43:44.264Z,89.75
2023-04-02T08:44:40.882Z,89.44
2023-04-02T08:45:46.410Z,88.86
2023-04-02T08:46:53.388Z,90.10
2023-04-02T08:47:43.997Z,90.52
2023-04-02T08:48:42.657Z,91.45
2023-04-02T08:49:41.961Z,90.68
2023-04-02T08:50:41.504Z,90.99
2023-04-02T08:51:41.710Z,90.52
2023-04-02T08:52:42.272Z,89.89
2023-04-02T08:53:41.355Z,89.07
2023-04-02T08:54:42.511Z,88.79
2023-04-02T08:55:41.654Z,89.42
2023-04-02T08:56:40.026Z,90.45
2023-04-02T08:57:42.790Z,91.03
2023-04-02T08:58:41.265Z,89.89
2023-04-02T08:59:43.734Z,89.73
2023-04-02T09:00:39.907Z,90.41
2023-04-02T09:01:41.629Z,90.52
2023-04-02T09:02:41.079Z,89.48
2023-04-02T09:03:41.423Z,89.28
2023-04-02T09:04:42.689Z,90.20
2023-04-02T09:05:41.344Z,90.89
2023-04-02T09:06:41.337Z,89.34
2023-04-02T09:07:41.497Z,87.72
2023-04-02T09:08:40.429Z,88.03
2023-04-02T09:09:40.287Z,88.40
2023-04-02T09:10:43.037Z,87.72
2023-04-02T09:11:41.239Z,88.55
2023-04-02T09:12:50.646Z,87.82
2023-04-02T09:13:40.740Z,86.79
2023-04-02T09:14:40.972Z,88.24
2023-04-02T09:15:41.031Z,87.41
2023-04-02T09:16:42.402Z,88.13
2023-04-02T09:17:52.911Z,88.76
2023-04-02T09:18:42.092Z,87.62
2023-04-02T09:19:41.382Z,88.55
2023-04-02T09:20:44.819Z,87.51
2023-04-02T09:21:43.887Z,88.13
2023-04-02T09:22:40.469Z,87.30
2023-04-02T09:23:41.927Z,87.62
2023-04-02T09:24:39.994Z,87.78
2023-04-02T09:25:42.166Z,87.85
2023-04-02T09:26:43.079Z,87.43
2023-04-02T09:27:48.260Z,87.27
2023-04-02T09:28:40.529Z,88.46
2023-04-02T09:29:40.574Z,88.16
2023-04-02T09:30:40.502Z,88.16
2023-04-02T09:31:40.529Z,88.67
2023-04-02T09:32:40.609Z,86.91
2023-04-02T09:33:40.468Z,87.02
2023-04-02T09:34:40.465Z,86.50
2023-04-02T09:35:40.630Z,85.16
2023-04-02T09:36:40.463Z,86.71
2023-04-02T09:37:40.422Z,87.54
2023-04-02T09:38:40.415Z,86.77
2023-04-02T09:39:40.419Z,85.47
2023-04-02T09:40:40.421Z,85.16
2023-04-02T09:41:40.386Z,86.81
2023-04-02T09:42:40.375Z,85.57
2023-04-02T09:43:40.362Z,87.18
2023-04-02T09:44:40.342Z,85.32
2023-04-02T09:45:40.384Z,84.43
2023-04-02T09:46:40.386Z,84.84
2023-04-02T09:47:42.278Z,85.16
2023-04-02T09:48:40.300Z,86.36
2023-04-02T09:49:40.312Z,86.73
2023-04-02T09:50:40.296Z,85.08
2023-04-02T09:51:40.276Z,83.70
2023-04-02T09:52:40.279Z,82.50
2023-04-02T09:53:42.281Z,83.73
2023-04-02T09:54:40.235Z,83.39
2023-04-02T09:55:40.246Z,83.49
2023-04-02T09:56:40.247Z,82.04
2023-04-02T09:57:40.249Z,82.45
2023-04-02T09:58:40.205Z,81.63
2023-04-02T09:59:40.188Z,81.52
2023-04-02T10:00:42.101Z,81.67
2023-04-02T10:01:40.235Z,82.35
2023-04-02T10:02:40.207Z,81.52
2023-04-02T10:03:40.152Z,82.04
2023-04-02T10:04:40.216Z,80.70
2023-04-02T10:05:41.382Z,82.35
2023-04-02T10:06:40.110Z,81.73
2023-04-02T10:07:40.138Z,81.80
2023-04-02T10:08:40.086Z,81.18
2023-04-02T10:09:40.087Z,81.35
2023-04-02T10:10:40.112Z,81.56
2023-04-02T10:11:46.667Z,81.24
2023-04-02T10:12:40.137Z,81.31
2023-04-02T10:13:40.044Z,79.35
2023-04-02T10:14:40.046Z,79.45
2023-04-02T10:15:40.057Z,78.97
2023-04-02T10:16:40.062Z,79.80
2023-04-02T10:17:40.030Z,78.80
2023-04-02T10:18:40.007Z,80.42
2023-04-02T10:19:39.984Z,80.32
2023-04-02T10:20:50.513Z,80.21
2023-04-02T10:21:39.963Z,80.83
2023-04-02T10:22:39.974Z,79.01
2023-04-02T10:23:39.932Z,79.73
2023-04-02T10:24:39.937Z,80.46
2023-04-02T10:25:39.925Z,79.11
2023-04-02T10:26:39.897Z,79.01
2023-04-02T10:27:39.916Z,80.62
2023-04-02T10:28:39.888Z,79.11
2023-04-02T10:29:39.873Z,78.66
2023-04-02T10:30:39.918Z,78.97
2023-04-02T10:31:39.854Z,78.56
2023-04-02T10:32:39.901Z,79.80
2023-04-02T10:33:39.836Z,79.45
2023-04-02T10:34:41.166Z,78.05
2023-04-02T10:35:39.829Z,77.94
2023-04-02T10:36:39.798Z,79.49
2023-04-02T10:37:39.822Z,77.84
2023-04-02T10:38:39.793Z,80.38
2023-04-02T10:39:39.768Z,79.76
2023-04-02T10:40:39.763Z,77.80
2023-04-02T10:41:39.748Z,77.91
2023-04-02T10:42:39.764Z,78.31
2023-04-02T10:43:39.733Z,78.63
2023-04-02T10:44:39.705Z,77.22
2023-04-02T10:45:39.707Z,79.49
2023-04-02T10:46:39.800Z,79.25
2023-04-02T10:47:39.742Z,76.60
2023-04-02T10:48:39.665Z,78.42
2023-04-02T10:49:39.716Z,78.90
2023-04-02T10:50:39.655Z,77.73
2023-04-02T10:51:39.643Z,76.18
2023-04-02T10:52:39.655Z,77.18
2023-04-02T10:53:39.631Z,76.01
2023-04-02T10:54:39.607Z,76.59
2023-04-02T10:55:39.602Z,75.29
2023-04-02T10:56:49.895Z,74.33
2023-04-02T10:57:39.736Z,74.08
2023-04-02T10:58:39.564Z,76.01
2023-04-02T10:59:39.569Z,73.85
2023-04-02T11:00:39.561Z,76.01
2023-04-02T11:01:39.574Z,71.55
2023-04-02T11:02:39.614Z,74.63
2023-04-02T11:03:39.699Z,74.05
2023-04-02T11:04:39.506Z,73.40
2023-04-02T11:05:39.492Z,73.98
2023-04-02T11:06:39.481Z,73.74
2023-04-02T11:07:39.472Z,70.25
2023-04-02T11:08:39.448Z,71.92
2023-04-02T11:09:39.444Z,72.03
2023-04-02T11:10:39.437Z,72.64
2023-04-02T11:11:39.457Z,72.27
2023-04-02T11:12:41.650Z,73.02
2023-04-02T11:13:39.405Z,71.82
2023-04-02T11:14:39.399Z,72.44
2023-04-02T11:15:39.426Z,72.72
2023-04-02T11:16:44.007Z,72.30
2023-04-02T11:17:39.412Z,74.36
2023-04-02T11:18:39.446Z,72.72
2023-04-02T11:19:39.345Z,71.28
2023-04-02T11:20:39.335Z,71.20
2023-04-02T11:21:51.100Z,71.24
2023-04-02T11:22:39.317Z,72.16
2023-04-02T11:23:39.300Z,72.58
2023-04-02T11:24:39.296Z,73.06
2023-04-02T11:25:39.274Z,71.07
2023-04-02T11:26:39.278Z,69.90
2023-04-02T11:27:39.271Z,70.45
2023-04-02T11:28:39.258Z,69.22
2023-04-02T11:29:39.234Z,69.42
2023-04-02T11:30:39.232Z,70.90
2023-04-02T11:31:39.266Z,71.51
2023-04-02T11:32:39.519Z,69.49
2023-04-02T11:33:41.392Z,70.76
2023-04-02T11:34:39.191Z,72.51
2023-04-02T11:35:39.542Z,70.55
2023-04-02T11:36:39.152Z,71.82
2023-04-02T11:37:39.155Z,71.99
2023-04-02T11:38:39.140Z,70.04
2023-04-02T11:39:39.113Z,73.30
2023-04-02T11:40:39.114Z,72.96
2023-04-02T11:41:39.092Z,68.03
2023-04-02T11:42:39.119Z,67.11
2023-04-02T11:43:39.070Z,67.58
2023-04-02T11:44:39.084Z,69.98
2023-04-02T11:45:50.139Z,68.67
2023-04-02T11:46:39.087Z,70.86
2023-04-02T11:47:39.059Z,69.32
2023-04-02T11:48:39.035Z,69.46
2023-04-02T11:49:39.013Z,70.93
2023-04-02T11:50:39.022Z,70.42
2023-04-02T11:51:38.991Z,71.69
2023-04-02T11:52:39.012Z,72.47
2023-04-02T11:53:38.968Z,71.69
2023-04-02T11:54:38.975Z,73.43
2023-04-02T11:55:39.189Z,72.20
2023-04-02T11:56:38.943Z,72.09
2023-04-02T11:57:39.037Z,72.20
2023-04-02T11:58:38.914Z,72.47
2023-04-02T11:59:38.910Z,71.20
2023-04-02T12:00:38.905Z,72.54
2023-04-02T12:01:38.905Z,75.35
2023-04-02T12:02:39.012Z,73.36
2023-04-02T12:03:38.866Z,69.36
2023-04-02T12:04:38.856Z,69.29
2023-04-02T12:05:38.856Z,70.56
2023-04-02T12:06:38.840Z,69.87
2023-04-02T12:07:38.839Z,71.89
2023-04-02T12:08:47.462Z,71.04
2023-04-02T12:09:38.801Z,70.11
2023-04-02T12:10:38.794Z,70.18
2023-04-02T12:11:38.773Z,69.53
2023-04-02T12:12:38.828Z,68.27
2023-04-02T12:13:38.754Z,65.95
2023-04-02T12:14:38.751Z,65.99
2023-04-02T12:15:38.728Z,61.11
2023-04-02T12:16:38.759Z,65.39
2023-04-02T12:17:38.778Z,63.79
2023-04-02T12:18:38.696Z,63.31
2023-04-02T12:19:38.683Z,62.52
2023-04-02T12:20:38.690Z,65.55
2023-04-02T12:21:38.663Z,64.18
2023-04-02T12:22:38.666Z,61.90
2023-04-02T12:23:38.643Z,58.26
2023-04-02T12:24:38.641Z,57.91
2023-04-02T12:25:38.609Z,60.39
2023-04-02T12:26:38.637Z,61.06
2023-04-02T12:27:38.620Z,59.71
2023-04-02T12:28:38.597Z,64.25
2023-04-02T12:29:38.580Z,63.21
2023-04-02T12:30:38.746Z,64.91
2023-04-02T12:31:38.556Z,67.38
2023-04-02T12:32:38.578Z,67.58
2023-04-02T12:33:38.526Z,67.48
2023-04-02T12:34:38.549Z,69.46
2023-04-02T12:35:38.513Z,70.08
2023-04-02T12:36:38.502Z,68.54
2023-04-02T12:37:38.515Z,68.02
2023-04-02T12:38:38.482Z,67.92
2023-04-02T12:39:38.469Z,68.85
2023-04-02T12:40:38.753Z,66.86
2023-04-02T12:41:38.446Z,66.48
2023-04-02T12:42:38.478Z,67.44
2023-04-02T12:43:38.436Z,67.13
2023-04-02T12:44:38.428Z,67.75
2023-04-02T12:45:38.403Z,69.56
2023-04-02T12:46:38.566Z,69.23
2023-04-02T12:47:38.475Z,67.68
2023-04-02T12:48:38.371Z,67.71
2023-04-02T12:49:38.385Z,67.61
2023-04-02T12:50:38.564Z,67.89
2023-04-02T12:51:38.345Z,66.96
2023-04-02T12:52:38.365Z,66.89
2023-04-02T12:53:38.367Z,67.61
2023-04-02T12:54:38.313Z,68.33
2023-04-02T12:55:38.290Z,67.99
2023-04-02T12:56:38.298Z,68.40
2023-04-02T12:57:38.377Z,67.21
2023-04-02T12:58:38.277Z,68.06
2023-04-02T12:59:38.282Z,67.00
2023-04-02T13:00:38.515Z,69.15
2023-04-02T13:01:38.258Z,67.71
2023-04-02T13:02:38.320Z,68.54
2023-04-02T13:03:38.258Z,67.20
2023-04-02T13:04:38.204Z,68.03
2023-04-02T13:05:38.198Z,64.51
2023-04-02T13:06:38.179Z,61.77
2023-04-02T13:07:38.162Z,61.83
2023-04-02T13:08:38.232Z,62.99
2023-04-02T13:09:38.152Z,63.53
2023-04-02T13:10:38.404Z,64.04
2023-04-02T13:11:38.140Z,59.37
2023-04-02T13:12:38.114Z,57.86
2023-04-02T13:13:38.110Z,56.50
2023-04-02T13:14:38.108Z,57.01
2023-04-02T13:15:38.084Z,55.07
2023-04-02T13:16:38.112Z,53.42
2023-04-02T13:17:38.055Z,55.02
2023-04-02T13:18:38.061Z,53.06
2023-04-02T13:19:38.038Z,56.12
2023-04-02T13:20:38.273Z,58.11
2023-04-02T13:21:38.013Z,57.21
2023-04-02T13:22:38.021Z,57.24
2023-04-02T13:23:38.041Z,56.62
2023-04-02T13:24:37.984Z,54.54
2023-04-02T13:25:37.976Z,56.22
2023-04-02T13:26:38.012Z,55.89
2023-04-02T13:27:37.968Z,58.93
2023-04-02T13:28:37.967Z,55.87
2023-04-02T13:29:37.935Z,59.73
2023-04-02T13:30:38.133Z,61.32
2023-04-02T13:31:37.956Z,61.76
2023-04-02T13:32:38.000Z,64.41
2023-04-02T13:33:37.909Z,64.13
2023-04-02T13:34:37.883Z,63.54
2023-04-02T13:35:37.904Z,64.26
2023-04-02T13:36:37.874Z,65.88
2023-04-02T13:37:37.906Z,66.19
2023-04-02T13:38:37.898Z,66.46
2023-04-02T13:39:37.836Z,65.64
2023-04-02T13:40:38.147Z,64.64
2023-04-02T13:41:37.809Z,63.27
2023-04-02T13:42:37.801Z,64.07
2023-04-02T13:43:37.828Z,64.06
2023-04-02T13:44:37.780Z,59.27
2023-04-02T13:45:37.824Z,59.82
2023-04-02T13:46:37.753Z,58.37
2023-04-02T13:47:40.534Z,59.32
2023-04-02T13:48:37.761Z,58.66
2023-04-02T13:49:37.725Z,60.71
2023-04-02T13:50:38.121Z,62.07
2023-04-02T13:51:37.716Z,61.25
2023-04-02T13:52:37.689Z,61.23
2023-04-02T13:53:37.695Z,64.13
2023-04-02T13:54:37.660Z,65.92
2023-04-02T13:55:37.655Z,63.66
2023-04-02T13:56:37.640Z,65.33
2023-04-02T13:57:37.677Z,63.34
2023-04-02T13:58:37.688Z,64.47
2023-04-02T13:59:37.624Z,64.16
2023-04-02T14:00:37.819Z,64.78
2023-04-02T14:01:37.668Z,64.75
2023-04-02T14:02:37.618Z,63.62
2023-04-02T14:03:37.568Z,63.62
2023-04-02T14:04:37.647Z,62.52
2023-04-02T14:05:37.803Z,62.83
2023-04-02T14:06:37.559Z,63.06
2023-04-02T14:07:37.536Z,63.40
2023-04-02T14:08:37.566Z,63.94
2023-04-02T14:09:37.554Z,66.10
2023-04-02T14:10:37.497Z,66.48
2023-04-02T14:11:37.484Z,65.89
2023-04-02T14:12:37.477Z,67.13
2023-04-02T14:13:37.481Z,66.75
2023-04-02T14:14:37.494Z,67.95
2023-04-02T14:15:37.735Z,67.68
2023-04-02T14:16:37.483Z,67.16
2023-04-02T14:17:37.490Z,68.50
2023-04-02T14:18:37.410Z,68.19
2023-04-02T14:19:37.429Z,67.36
2023-04-02T14:20:37.405Z,67.16
2023-04-02T14:21:37.371Z,69.01
2023-04-02T14:22:37.376Z,69.18
2023-04-02T14:23:37.395Z,68.46
2023-04-02T14:24:37.375Z,66.17
2023-04-02T14:25:37.554Z,64.94
2023-04-02T14:26:37.350Z,66.96
2023-04-02T14:27:39.067Z,67.60
2023-04-02T14:28:37.318Z,66.47
2023-04-02T14:29:37.311Z,66.99
2023-04-02T14:30:37.680Z,68.12
2023-04-02T14:31:37.277Z,68.32
2023-04-02T14:32:37.316Z,68.32
2023-04-02T14:33:37.240Z,69.42
2023-04-02T14:34:37.282Z,68.19
2023-04-02T14:35:37.267Z,66.78
2023-04-02T14:36:37.215Z,67.60
2023-04-02T14:37:37.217Z,66.78
2023-04-02T14:38:37.203Z,66.91
2023-04-02T14:39:37.247Z,67.53
2023-04-02T14:40:37.362Z,67.30
2023-04-02T14:41:37.170Z,68.74
2023-04-02T14:42:37.159Z,65.22
2023-04-02T14:43:37.149Z,65.06
2023-04-02T14:44:37.189Z,64.59
2023-04-02T14:45:37.113Z,63.06
2023-04-02T14:46:37.718Z,59.09
2023-04-02T14:47:37.157Z,59.30
2023-04-02T14:48:37.125Z,59.30
2023-04-02T14:49:37.091Z,59.53
2023-04-02T14:50:37.316Z,59.83
2023-04-02T14:51:37.084Z,60.65
2023-04-02T14:52:37.064Z,59.61
2023-04-02T14:53:37.073Z,62.04
2023-04-02T14:54:37.078Z,63.13
2023-04-02T14:55:37.026Z,61.45
2023-04-02T14:56:37.015Z,61.92
2023-04-02T14:57:37.049Z,62.36
2023-04-02T14:58:37.021Z,63.10
2023-04-02T14:59:36.991Z,66.46
2023-04-02T15:00:37.234Z,63.82
2023-04-02T15:01:37.005Z,64.13
2023-04-02T15:02:36.963Z,64.82
2023-04-02T15:03:37.015Z,61.64
2023-04-02T15:04:36.929Z,63.51
2023-04-02T15:05:36.901Z,65.60
2023-04-02T15:06:36.935Z,65.32
2023-04-02T15:07:36.888Z,65.66
2023-04-02T15:08:36.913Z,64.46
2023-04-02T15:09:36.871Z,67.33
2023-04-02T15:10:37.189Z,65.32
2023-04-02T15:11:36.859Z,63.65
2023-04-02T15:12:36.837Z,63.49
2023-04-02T15:13:36.831Z,64.17
2023-04-02T15:14:36.844Z,61.41
2023-04-02T15:15:40.521Z,62.54
2023-04-02T15:16:36.819Z,63.79
2023-04-02T15:17:36.821Z,65.44
2023-04-02T15:18:36.782Z,64.92
2023-04-02T15:19:36.754Z,63.90
2023-04-02T15:20:37.015Z,64.54
2023-04-02T15:21:43.410Z,63.44
2023-04-02T15:22:36.728Z,63.57
2023-04-02T15:23:36.719Z,65.63
2023-04-02T15:24:36.718Z,66.45
2023-04-02T15:25:36.716Z,65.83
2023-04-02T15:26:36.687Z,64.37
2023-04-02T15:27:36.680Z,66.08
2023-04-02T15:28:36.690Z,63.65
2023-04-02T15:29:36.674Z,63.21
2023-04-02T15:30:36.874Z,62.80
2023-04-02T15:31:36.659Z,62.65
2023-04-02T15:32:36.664Z,64.32
2023-04-02T15:33:36.628Z,64.87
2023-04-02T15:34:36.607Z,64.29
2023-04-02T15:35:37.042Z,62.83
2023-04-02T15:36:36.576Z,63.90
2023-04-02T15:37:36.563Z,63.15
2023-04-02T15:38:36.582Z,61.41
2023-04-02T15:39:36.544Z,61.10
2023-04-02T15:40:36.564Z,60.69
2023-04-02T15:41:36.538Z,61.27
2023-04-02T15:42:36.565Z,61.82
2023-04-02T15:43:36.551Z,62.30
2023-04-02T15:44:36.505Z,61.89
2023-04-02T15:45:36.769Z,61.07
2023-04-02T15:46:36.495Z,59.89
2023-04-02T15:47:36.871Z,60.75
2023-04-02T15:48:36.484Z,62.33
2023-04-02T15:49:36.439Z,61.15
2023-04-02T15:50:36.621Z,58.51
2023-04-02T15:51:36.438Z,58.72
2023-04-02T15:53:05.645Z,59.84
2023-04-02T15:54:06.645Z,59.33
2023-04-02T15:55:06.633Z,58.48
2023-04-02T15:56:06.635Z,57.48
2023-04-02T15:57:06.645Z,59.09
2023-04-02T15:58:06.592Z,59.33
2023-04-02T15:59:06.572Z,60.56
2023-04-02T16:00:06.591Z,59.33
2023-04-02T16:01:06.628Z,57.89
2023-04-02T16:02:06.551Z,59.87
2023-04-02T16:03:06.806Z,61.82
2023-04-02T16:04:06.543Z,61.18
2023-04-02T16:05:06.533Z,60.35
2023-04-02T16:06:06.556Z,59.64
2023-04-02T16:07:06.489Z,61.18
2023-04-02T16:08:06.486Z,62.10
2023-04-02T16:09:06.496Z,60.25
2023-04-02T16:10:06.504Z,59.94
2023-04-02T16:11:07.297Z,59.02
2023-04-02T16:12:06.453Z,59.94
2023-04-02T16:13:06.425Z,59.87
2023-04-02T16:14:06.425Z,60.47
2023-04-02T16:15:06.454Z,62.66
2023-04-02T16:16:06.487Z,62.12
2023-04-02T16:17:17.475Z,61.33
2023-04-02T16:18:06.394Z,62.98
2023-04-02T16:19:06.363Z,61.36
2023-04-02T16:20:06.363Z,62.18
2023-04-02T16:21:06.363Z,64.64
2023-04-02T16:22:06.342Z,63.51
2023-04-02T16:23:06.331Z,62.62
2023-04-02T16:24:06.335Z,62.83
2023-04-02T16:25:06.310Z,64.47
2023-04-02T16:26:06.370Z,63.44
2023-04-02T16:27:06.287Z,62.31
2023-04-02T16:28:06.279Z,62.45
2023-04-02T16:29:06.286Z,63.06
2023-04-02T16:30:06.257Z,63.57
2023-04-02T16:31:06.276Z,64.81
2023-04-02T16:32:06.246Z,62.96
2023-04-02T16:33:06.277Z,63.65
2023-04-02T16:34:06.212Z,63.24
2023-04-02T16:35:33.097Z,63.24
2023-04-02T16:36:06.234Z,62.83
2023-04-02T16:37:06.273Z,63.17
2023-04-02T16:38:06.177Z,64.19
2023-04-02T16:39:06.153Z,64.29
2023-04-02T16:40:06.151Z,62.34
2023-04-02T16:41:08.701Z,63.37
2023-04-02T16:42:06.128Z,64.12
2023-04-02T16:43:06.116Z,63.71
2023-04-02T16:44:06.113Z,64.32
2023-04-02T16:45:06.094Z,64.01
2023-04-02T16:46:06.150Z,64.63
2023-04-02T16:47:06.120Z,63.84
2023-04-02T16:48:06.142Z,65.14
2023-04-02T16:49:06.072Z,64.43
2023-04-02T16:50:06.042Z,64.97
2023-04-02T16:51:06.024Z,64.25
2023-04-02T16:52:06.048Z,65.62
2023-04-02T16:53:06.002Z,65.86